createdAt,value
2019-03-31T00:00:01.502Z,9.17
2019-03-31T00:02:29.882Z,8.23
2019-03-31T00:07:35.407Z,6.50
2019-03-31T00:10:07.004Z,9.60
2019-03-31T00:12:38.253Z,9.80
2019-03-31T00:15:09.777Z,8.17
2019-03-31T00:17:38.201Z,11.27
2019-03-31T00:20:10.177Z,10.40
2019-03-31T00:22:38.569Z,13.47
2019-03-31T00:25:20.090Z,9.43
2019-03-31T00:27:50.117Z,7.47
2019-03-31T00:30:25.731Z,8.77
2019-03-31T00:32:58.541Z,12.00
2019-03-31T00:35:26.926Z,12.73
2019-03-31T00:37:58.049Z,13.77
2019-03-31T00:40:26.441Z,10.23
2019-03-31T00:42:56.678Z,9.73
2019-03-31T00:45:25.066Z,11.63
2019-03-31T00:48:02.114Z,13.30
2019-03-31T00:50:30.808Z,11.23
2019-03-31T00:53:00.634Z,10.00
2019-03-31T00:55:33.575Z,11.03
2019-03-31T00:58:04.670Z,11.90
2019-03-31T01:00:46.653Z,9.10
2019-03-31T01:03:35.362Z,10.30
2019-03-31T01:06:09.208Z,10.03
2019-03-31T01:08:37.590Z,12.23
2019-03-31T01:11:10.735Z,14.33
2019-03-31T01:13:40.749Z,14.73
2019-03-31T01:16:14.039Z,12.20
2019-03-31T01:18:51.799Z,9.97
2019-03-31T01:21:20.853Z,10.27
2019-03-31T01:23:55.021Z,10.93
2019-03-31T01:26:26.329Z,13.90
2019-03-31T01:28:54.794Z,10.37
2019-03-31T01:31:28.302Z,10.50
2019-03-31T01:33:57.161Z,11.17
2019-03-31T01:36:27.016Z,9.10
2019-03-31T01:38:56.711Z,11.37
2019-03-31T01:41:27.935Z,13.37
2019-03-31T01:43:56.754Z,12.33
2019-03-31T01:46:31.509Z,10.87
2019-03-31T01:49:00.064Z,15.40
2019-03-31T01:51:31.140Z,11.63
2019-03-31T01:53:59.522Z,13.53
2019-03-31T01:56:30.874Z,15.30
2019-03-31T01:58:59.285Z,12.13
2019-03-31T02:01:29.381Z,11.93
2019-03-31T02:04:00.403Z,11.50
2019-03-31T02:06:33.007Z,14.13
2019-03-31T02:09:01.585Z,13.13
2019-03-31T02:11:36.090Z,17.10
2019-03-31T02:14:05.249Z,14.97
2019-03-31T02:16:36.768Z,15.53
2019-03-31T02:19:05.197Z,15.00
2019-03-31T02:21:35.117Z,12.27
2019-03-31T02:24:03.514Z,15.20
2019-03-31T02:26:34.961Z,14.20
2019-03-31T02:29:04.025Z,13.90
2019-03-31T02:31:32.417Z,14.63
2019-03-31T02:34:00.805Z,14.77
2019-03-31T02:36:32.109Z,14.57
2019-03-31T02:39:03.395Z,16.27
2019-03-31T02:41:32.248Z,13.73
2019-03-31T02:44:11.354Z,11.70
2019-03-31T02:46:39.729Z,9.77
2019-03-31T02:49:09.261Z,13.53
2019-03-31T02:51:39.684Z,10.50
2019-03-31T02:54:12.994Z,13.57
2019-03-31T02:56:45.918Z,8.97
2019-03-31T02:59:18.538Z,10.77
2019-03-31T03:01:49.906Z,9.47
2019-03-31T03:04:22.845Z,8.93
2019-03-31T03:06:54.225Z,9.27
2019-03-31T03:09:27.564Z,10.23
2019-03-31T03:12:03.652Z,15.20
2019-03-31T03:14:34.849Z,10.13
2019-03-31T03:17:03.241Z,10.33
2019-03-31T03:19:31.613Z,9.50
2019-03-31T03:22:00.077Z,12.73
2019-03-31T03:24:30.105Z,13.90
2019-03-31T03:26:58.502Z,14.23
2019-03-31T03:29:29.437Z,15.67
2019-03-31T03:32:02.123Z,22.03
2019-03-31T03:34:32.236Z,13.77
2019-03-31T03:37:00.894Z,15.20
2019-03-31T03:39:29.271Z,9.63
2019-03-31T03:41:57.665Z,11.77
2019-03-31T03:44:26.999Z,14.23
2019-03-31T03:46:55.385Z,10.77
2019-03-31T03:49:32.627Z,12.57
2019-03-31T03:52:00.662Z,16.80
2019-03-31T03:54:32.019Z,11.73
2019-03-31T03:57:03.174Z,11.80
2019-03-31T03:59:31.570Z,11.20
2019-03-31T04:02:00.197Z,9.73
2019-03-31T04:04:31.039Z,10.17
2019-03-31T04:06:59.421Z,8.67
2019-03-31T04:09:32.073Z,13.53
2019-03-31T04:12:00.641Z,10.77
2019-03-31T04:14:29.270Z,12.77
2019-03-31T04:16:57.649Z,13.33
2019-03-31T04:19:26.037Z,12.90
2019-03-31T04:21:57.149Z,7.33
2019-03-31T04:24:28.192Z,10.83
2019-03-31T04:26:59.434Z,12.80
2019-03-31T04:29:34.033Z,9.63
2019-03-31T04:32:05.381Z,9.10
2019-03-31T04:34:41.627Z,10.97
2019-03-31T04:37:15.921Z,13.10
2019-03-31T04:39:44.300Z,12.37
2019-03-31T04:42:20.352Z,10.20
2019-03-31T04:44:48.987Z,10.77
2019-03-31T04:47:17.361Z,11.23
2019-03-31T04:49:48.466Z,9.93
2019-03-31T04:52:22.807Z,11.20
2019-03-31T04:54:51.203Z,12.13
2019-03-31T04:57:22.817Z,13.90
2019-03-31T04:59:51.207Z,11.17
2019-03-31T05:02:20.615Z,9.27
2019-03-31T05:04:53.466Z,12.03
2019-03-31T05:07:21.852Z,15.80
2019-03-31T05:09:52.921Z,13.07
2019-03-31T05:12:21.409Z,14.00
2019-03-31T05:14:49.805Z,12.30
2019-03-31T05:17:18.204Z,11.87
2019-03-31T05:19:50.991Z,11.23
2019-03-31T05:22:19.385Z,14.20
2019-03-31T05:24:49.409Z,13.23
2019-03-31T05:27:19.098Z,11.97
2019-03-31T05:29:47.554Z,11.90
2019-03-31T05:32:19.512Z,12.50
2019-03-31T05:34:47.878Z,13.03
2019-03-31T05:37:16.278Z,12.40
2019-03-31T05:39:44.650Z,9.63
2019-03-31T05:42:15.724Z,10.23
2019-03-31T05:44:48.441Z,11.87
2019-03-31T05:47:18.558Z,13.47
2019-03-31T05:49:46.953Z,11.83
2019-03-31T05:52:16.985Z,13.80
2019-03-31T05:54:45.381Z,14.53
2019-03-31T05:57:14.012Z,11.73
2019-03-31T05:59:45.415Z,16.57
2019-03-31T06:02:13.793Z,13.63
2019-03-31T06:04:42.202Z,13.53
2019-03-31T06:07:12.486Z,14.17
2019-03-31T06:09:40.877Z,12.47
2019-03-31T06:12:10.814Z,11.00
2019-03-31T06:14:41.909Z,9.47
2019-03-31T06:17:10.302Z,8.83
2019-03-31T06:19:40.661Z,9.40
2019-03-31T06:22:10.681Z,7.60
2019-03-31T06:24:40.945Z,7.10
2019-03-31T06:27:09.590Z,6.33
2019-03-31T06:29:40.924Z,10.53
2019-03-31T06:32:09.336Z,10.17
2019-03-31T06:34:47.597Z,10.83
2019-03-31T06:37:15.493Z,6.83
2019-03-31T06:39:51.469Z,9.80
2019-03-31T06:42:31.741Z,9.73
2019-03-31T06:45:00.139Z,9.23
2019-03-31T06:47:31.914Z,8.83
2019-03-31T06:50:08.677Z,9.27
2019-03-31T06:52:37.066Z,9.30
2019-03-31T06:55:14.674Z,8.50
2019-03-31T06:57:46.041Z,10.63
2019-03-31T07:00:18.622Z,9.20
2019-03-31T07:02:47.805Z,8.77
2019-03-31T07:05:25.098Z,9.43
2019-03-31T07:07:58.086Z,12.10
2019-03-31T07:10:26.505Z,10.83
2019-03-31T07:12:55.018Z,11.43
2019-03-31T07:15:30.867Z,9.63
2019-03-31T07:18:02.112Z,10.70
2019-03-31T07:20:32.282Z,12.57
2019-03-31T07:23:02.326Z,12.13
2019-03-31T07:25:30.718Z,12.15
2019-03-31T07:27:59.113Z,12.07
2019-03-31T07:30:29.144Z,13.22
2019-03-31T07:33:03.497Z,11.50
2019-03-31T07:35:31.889Z,14.98
2019-03-31T07:38:00.421Z,11.35
2019-03-31T07:40:31.483Z,12.23
2019-03-31T07:43:00.033Z,15.45
2019-03-31T07:45:31.549Z,11.05
2019-03-31T07:48:02.637Z,10.30
2019-03-31T07:50:31.304Z,14.85
2019-03-31T07:53:02.490Z,11.50
2019-03-31T07:55:30.950Z,10.55
2019-03-31T07:57:59.350Z,11.55
2019-03-31T08:00:28.588Z,10.60
2019-03-31T08:03:00.141Z,12.05
2019-03-31T08:05:33.422Z,11.73
2019-03-31T08:08:02.653Z,13.85
2019-03-31T08:10:33.765Z,11.25
2019-03-31T08:13:05.830Z,13.25
2019-03-31T08:15:40.205Z,9.68
2019-03-31T08:18:08.614Z,13.40
2019-03-31T08:20:40.065Z,12.33
2019-03-31T08:23:13.298Z,12.15
2019-03-31T08:25:41.685Z,11.70
2019-03-31T08:28:12.101Z,13.08
2019-03-31T08:30:42.373Z,11.70
2019-03-31T08:33:10.774Z,13.38
2019-03-31T08:35:47.532Z,12.70
2019-03-31T08:38:13.520Z,12.05
2019-03-31T08:40:42.326Z,13.30
2019-03-31T08:43:12.359Z,12.43
2019-03-31T08:45:42.398Z,12.23
2019-03-31T08:48:12.421Z,14.50
2019-03-31T08:50:43.553Z,12.68
2019-03-31T08:53:13.579Z,11.53
2019-03-31T08:55:41.965Z,11.00
2019-03-31T08:58:10.605Z,11.60
2019-03-31T09:00:40.625Z,9.93
2019-03-31T09:03:09.034Z,11.90
2019-03-31T09:05:43.029Z,10.88
2019-03-31T09:08:13.069Z,10.15
2019-03-31T09:10:51.725Z,11.50
2019-03-31T09:13:23.063Z,11.88
2019-03-31T09:15:52.021Z,9.40
2019-03-31T09:18:20.456Z,9.18
2019-03-31T09:20:49.089Z,10.45
2019-03-31T09:23:23.210Z,10.20
2019-03-31T09:25:52.461Z,13.20
2019-03-31T09:28:20.858Z,13.08
2019-03-31T09:30:50.894Z,11.73
2019-03-31T09:33:20.542Z,10.53
2019-03-31T09:35:48.967Z,12.58
2019-03-31T09:38:17.353Z,13.03
2019-03-31T09:40:50.009Z,13.00
2019-03-31T09:43:18.405Z,14.73
2019-03-31T09:45:46.969Z,14.13
2019-03-31T09:48:21.525Z,12.35
2019-03-31T09:50:56.431Z,12.20
2019-03-31T09:53:24.972Z,13.70
2019-03-31T09:55:55.001Z,11.75
2019-03-31T09:58:23.494Z,14.78
2019-03-31T10:00:53.342Z,15.78
2019-03-31T10:03:25.601Z,16.37
2019-03-31T10:05:53.998Z,14.90
2019-03-31T10:08:22.642Z,19.30
2019-03-31T10:10:51.032Z,19.35
2019-03-31T10:13:20.969Z,19.75
2019-03-31T10:15:49.434Z,19.23
2019-03-31T10:18:21.233Z,21.87
2019-03-31T10:20:52.548Z,17.95
2019-03-31T10:23:20.945Z,20.48
2019-03-31T10:25:55.184Z,20.65
2019-03-31T10:28:26.415Z,21.52
2019-03-31T10:30:58.620Z,18.70
2019-03-31T10:33:26.993Z,21.50
2019-03-31T10:35:57.023Z,17.77
2019-03-31T10:38:25.408Z,19.37
2019-03-31T10:41:03.399Z,22.40
2019-03-31T10:43:31.808Z,23.52
2019-03-31T10:46:00.257Z,18.02
2019-03-31T10:48:31.870Z,20.65
2019-03-31T10:51:01.282Z,18.80
2019-03-31T10:53:29.906Z,18.52
2019-03-31T10:56:01.804Z,17.50
2019-03-31T10:58:35.857Z,16.17
2019-03-31T11:01:05.797Z,17.48
2019-03-31T11:03:46.026Z,16.65
2019-03-31T11:06:14.427Z,18.55
2019-03-31T11:08:45.788Z,17.42
2019-03-31T11:11:14.189Z,19.35
2019-03-31T11:13:46.904Z,17.57
2019-03-31T11:16:15.451Z,15.93
2019-03-31T11:18:43.838Z,18.32
2019-03-31T11:21:28.533Z,18.87
2019-03-31T11:23:56.933Z,19.42
2019-03-31T11:26:25.321Z,15.68
2019-03-31T11:28:59.446Z,15.85
2019-03-31T11:31:33.713Z,14.18
2019-03-31T11:34:04.826Z,14.87
2019-03-31T11:36:33.213Z,15.08
2019-03-31T11:39:01.604Z,16.70
2019-03-31T11:41:31.645Z,16.57
2019-03-31T11:44:00.036Z,16.97
2019-03-31T11:46:30.081Z,16.07
2019-03-31T11:48:58.486Z,16.23
2019-03-31T11:51:26.888Z,17.60
2019-03-31T11:54:00.962Z,19.10
2019-03-31T11:56:29.353Z,15.58
2019-03-31T11:58:57.992Z,13.58
2019-03-31T12:01:29.302Z,13.40
2019-03-31T12:03:59.337Z,12.43
2019-03-31T12:06:30.725Z,10.30
2019-03-31T12:08:59.129Z,11.48
2019-03-31T12:11:27.522Z,16.67
2019-03-31T12:13:59.081Z,16.05
2019-03-31T12:16:27.460Z,13.85
2019-03-31T12:18:58.539Z,14.45
2019-03-31T12:21:26.947Z,12.70
2019-03-31T12:24:01.817Z,14.13
2019-03-31T12:26:33.156Z,17.57
2019-03-31T12:29:01.787Z,11.43
2019-03-31T12:31:33.749Z,12.50
2019-03-31T12:34:04.033Z,16.65
2019-03-31T12:36:32.886Z,14.70
2019-03-31T12:39:01.350Z,17.90
2019-03-31T12:41:30.143Z,14.60
2019-03-31T12:44:00.085Z,12.10
2019-03-31T12:46:30.125Z,12.18
2019-03-31T12:49:00.169Z,15.58
2019-03-31T12:51:28.561Z,15.68
2019-03-31T12:53:56.961Z,14.87
2019-03-31T12:56:34.164Z,14.85
2019-03-31T12:59:11.216Z,16.60
2019-03-31T13:01:39.612Z,14.90
2019-03-31T13:04:08.021Z,13.83
2019-03-31T13:06:36.661Z,13.40
2019-03-31T13:09:07.953Z,13.05
2019-03-31T13:11:39.037Z,12.63
2019-03-31T13:14:13.483Z,10.38
2019-03-31T13:16:41.938Z,10.45
2019-03-31T13:19:10.343Z,11.00
2019-03-31T13:21:38.736Z,10.05
2019-03-31T13:24:08.780Z,11.80
2019-03-31T13:26:40.140Z,12.13
2019-03-31T13:29:08.542Z,10.75
2019-03-31T13:31:37.937Z,13.95
2019-03-31T13:34:13.761Z,10.88
2019-03-31T13:36:42.405Z,10.05
2019-03-31T13:39:13.476Z,8.20
2019-03-31T13:41:42.216Z,7.87
2019-03-31T13:44:12.116Z,12.18
2019-03-31T13:46:40.529Z,10.43
2019-03-31T13:49:11.849Z,11.03
2019-03-31T13:51:40.242Z,11.35
2019-03-31T13:54:23.360Z,11.73
2019-03-31T13:56:58.813Z,10.03
2019-03-31T13:59:32.337Z,10.38
2019-03-31T14:02:02.369Z,9.93
2019-03-31T14:04:50.964Z,9.38
2019-03-31T14:07:12.619Z,13.40
2019-03-31T14:09:41.005Z,12.03
2019-03-31T14:12:11.045Z,12.47
2019-03-31T14:14:42.705Z,11.05
2019-03-31T14:17:11.129Z,11.95
2019-03-31T14:19:39.610Z,10.82
2019-03-31T14:22:10.920Z,12.23
2019-03-31T14:24:39.369Z,9.90
2019-03-31T14:27:07.761Z,14.38
2019-03-31T14:29:42.664Z,11.35
2019-03-31T14:32:13.305Z,12.93
2019-03-31T14:34:41.701Z,11.25
2019-03-31T14:37:14.863Z,10.48
2019-03-31T14:39:47.505Z,10.58
2019-03-31T14:42:18.873Z,9.63
2019-03-31T14:44:50.351Z,11.25
2019-03-31T14:47:18.738Z,13.18
2019-03-31T14:49:47.361Z,14.45
2019-03-31T14:52:26.564Z,16.23
2019-03-31T14:54:47.526Z,10.93
2019-03-31T14:57:18.635Z,9.83
2019-03-31T14:59:52.564Z,13.32
2019-03-31T15:02:21.197Z,11.78
2019-03-31T15:04:49.601Z,12.03
2019-03-31T15:07:20.713Z,9.68
2019-03-31T15:09:51.812Z,11.25
2019-03-31T15:12:20.199Z,14.68
2019-03-31T15:14:48.581Z,11.80
2019-03-31T15:17:18.788Z,10.45
2019-03-31T15:19:50.185Z,11.78
2019-03-31T15:22:21.297Z,14.45
2019-03-31T15:24:49.684Z,14.87
2019-03-31T15:27:18.089Z,16.37
2019-03-31T15:29:46.715Z,20.92
2019-03-31T15:32:17.792Z,24.77
2019-03-31T15:34:46.187Z,35.68
2019-03-31T15:37:14.583Z,31.93
2019-03-31T15:39:44.508Z,34.90
2019-03-31T15:42:14.557Z,32.45
2019-03-31T15:44:46.352Z,42.62
2019-03-31T15:47:14.809Z,37.55
2019-03-31T15:49:53.760Z,41.63
2019-03-31T15:52:22.168Z,45.45
2019-03-31T15:54:50.561Z,46.10
2019-03-31T15:57:18.949Z,50.07
2019-03-31T16:00:03.617Z,47.50
2019-03-31T16:02:33.894Z,44.03
2019-03-31T16:05:12.444Z,48.67
2019-03-31T16:07:39.136Z,46.57
2019-03-31T16:10:09.968Z,49.23
2019-03-31T16:12:41.385Z,44.63
2019-03-31T16:15:12.325Z,49.43
2019-03-31T16:17:42.273Z,46.33
2019-03-31T16:20:14.815Z,43.93
2019-03-31T16:22:43.221Z,52.33
2019-03-31T16:25:16.623Z,49.27
2019-03-31T16:27:45.017Z,53.07
2019-03-31T16:30:18.672Z,50.53
2019-03-31T16:32:51.952Z,51.43
2019-03-31T16:35:33.179Z,49.00
2019-03-31T16:38:01.541Z,50.97
2019-03-31T16:40:30.116Z,52.63
2019-03-31T16:42:58.583Z,46.43
2019-03-31T16:45:36.463Z,56.53
2019-03-31T16:48:08.236Z,45.67
2019-03-31T16:50:39.936Z,52.50
2019-03-31T16:53:11.079Z,48.57
2019-03-31T16:55:42.792Z,46.97
2019-03-31T16:58:12.842Z,46.70
2019-03-31T17:00:44.523Z,45.97
2019-03-31T17:03:12.965Z,46.30
2019-03-31T17:05:45.977Z,49.63
2019-03-31T17:08:17.092Z,42.30
2019-03-31T17:10:47.144Z,46.43
2019-03-31T17:13:15.707Z,43.43
2019-03-31T17:15:44.136Z,48.17
2019-03-31T17:18:15.565Z,41.63
2019-03-31T17:20:48.629Z,41.73
2019-03-31T17:23:17.257Z,40.73
2019-03-31T17:25:47.353Z,40.27
2019-03-31T17:28:25.358Z,45.73
2019-03-31T17:30:54.348Z,42.90
2019-03-31T17:33:22.741Z,41.33
2019-03-31T17:35:51.185Z,37.57
2019-03-31T17:38:19.574Z,34.53
2019-03-31T17:40:48.221Z,35.73
2019-03-31T17:43:16.604Z,41.50
2019-03-31T17:45:45.300Z,32.87
2019-03-31T17:48:13.690Z,35.07
2019-03-31T17:50:43.270Z,29.80
2019-03-31T17:53:11.660Z,32.10
2019-03-31T17:55:40.057Z,32.20
2019-03-31T17:58:09.761Z,30.63
2019-03-31T18:00:39.574Z,29.83
2019-03-31T18:03:08.217Z,29.17
2019-03-31T18:05:36.861Z,31.77
2019-03-31T18:08:05.253Z,32.23
2019-03-31T18:10:35.055Z,30.40
2019-03-31T18:13:06.911Z,26.93
2019-03-31T18:15:35.306Z,28.03
2019-03-31T18:18:03.697Z,27.57
2019-03-31T18:20:33.490Z,28.83
2019-03-31T18:23:03.076Z,24.53
2019-03-31T18:25:31.443Z,25.43
2019-03-31T18:27:59.830Z,23.13
2019-03-31T18:30:29.237Z,23.80
2019-03-31T18:32:57.637Z,24.63
2019-03-31T18:35:27.025Z,23.93
2019-03-31T18:37:56.687Z,22.20
2019-03-31T18:40:34.810Z,24.50
2019-03-31T18:42:56.441Z,23.97
2019-03-31T18:45:24.847Z,19.23
2019-03-31T18:47:53.243Z,23.23
2019-03-31T18:50:21.645Z,21.40
2019-03-31T18:52:50.047Z,20.67
2019-03-31T18:55:20.395Z,26.07
2019-03-31T18:58:06.781Z,24.57
2019-03-31T19:00:48.805Z,19.40
2019-03-31T19:03:24.720Z,20.83
2019-03-31T19:06:11.437Z,21.93
2019-03-31T19:08:50.640Z,21.43
2019-03-31T19:11:26.640Z,18.33
2019-03-31T19:13:56.726Z,18.87
2019-03-31T19:16:39.042Z,20.27
2019-03-31T19:19:24.401Z,18.27
2019-03-31T19:22:03.308Z,17.50
2019-03-31T19:24:33.598Z,17.63
2019-03-31T19:27:22.028Z,17.03
2019-03-31T19:30:01.753Z,17.80
2019-03-31T19:32:31.796Z,21.40
2019-03-31T19:35:06.519Z,18.70
2019-03-31T19:37:54.420Z,20.10
2019-03-31T19:40:31.798Z,18.53
2019-03-31T19:43:04.601Z,15.57
2019-03-31T19:45:40.378Z,13.00
2019-03-31T19:48:26.677Z,16.87
2019-03-31T19:50:56.713Z,19.33
2019-03-31T19:53:32.717Z,15.30
2019-03-31T19:56:07.825Z,16.30
2019-03-31T19:58:56.749Z,17.30
2019-03-31T20:01:35.835Z,17.63
2019-03-31T20:04:11.609Z,15.23
2019-03-31T20:06:47.588Z,16.93
2019-03-31T20:09:23.109Z,15.80
2019-03-31T20:12:11.181Z,13.37
2019-03-31T20:14:50.188Z,17.83
2019-03-31T20:17:42.159Z,15.23
2019-03-31T20:20:31.600Z,12.73
2019-03-31T20:23:07.855Z,16.53
2019-03-31T20:25:43.629Z,15.47
2019-03-31T20:28:28.830Z,17.83
2019-03-31T20:31:10.513Z,12.00
2019-03-31T20:33:40.540Z,12.93
2019-03-31T20:36:26.997Z,13.13
2019-03-31T20:39:00.088Z,14.83
2019-03-31T20:41:41.929Z,14.10
2019-03-31T20:44:16.268Z,9.60
2019-03-31T20:46:46.549Z,12.07
2019-03-31T20:49:15.105Z,12.60
2019-03-31T20:51:43.496Z,15.20
2019-03-31T20:54:22.304Z,15.23
2019-03-31T20:56:52.292Z,11.30
2019-03-31T20:59:23.954Z,12.93
2019-03-31T21:01:54.521Z,18.97
2019-03-31T21:04:22.905Z,15.60
2019-03-31T21:06:54.213Z,12.40
2019-03-31T21:09:24.157Z,14.40
2019-03-31T21:11:55.157Z,14.30
2019-03-31T21:14:23.551Z,16.30
2019-03-31T21:16:53.801Z,12.87
2019-03-31T21:19:23.534Z,12.90
2019-03-31T21:21:54.617Z,13.40
2019-03-31T21:24:28.400Z,12.73
2019-03-31T21:26:59.725Z,12.83
2019-03-31T21:29:28.106Z,18.70
2019-03-31T21:32:05.648Z,11.87
2019-03-31T21:34:35.682Z,12.67
2019-03-31T21:37:07.017Z,12.33
2019-03-31T21:39:37.061Z,13.17
2019-03-31T21:42:08.779Z,13.87
2019-03-31T21:44:39.862Z,14.17
2019-03-31T21:47:08.249Z,10.50
2019-03-31T21:49:42.109Z,14.73
2019-03-31T21:52:10.830Z,16.70
2019-03-31T21:54:40.845Z,9.27
2019-03-31T21:57:09.725Z,11.43
2019-03-31T21:59:38.107Z,10.30
2019-03-31T22:02:12.172Z,11.83
2019-03-31T22:04:49.045Z,10.87
2019-03-31T22:07:20.546Z,15.13
2019-03-31T22:09:49.535Z,10.60
2019-03-31T22:12:19.546Z,12.30
2019-03-31T22:14:48.164Z,10.97
2019-03-31T22:17:16.560Z,16.10
2019-03-31T22:19:46.821Z,11.87
2019-03-31T22:22:18.110Z,10.47
2019-03-31T22:24:51.045Z,14.53
2019-03-31T22:27:19.421Z,10.40
2019-03-31T22:29:47.820Z,9.80
2019-03-31T22:32:19.247Z,12.17
2019-03-31T22:34:47.637Z,14.63
2019-03-31T22:37:16.023Z,12.77
2019-03-31T22:39:44.497Z,12.83
2019-03-31T22:42:16.661Z,12.40
2019-03-31T22:44:46.614Z,16.60
2019-03-31T22:47:15.087Z,13.43
2019-03-31T22:49:44.053Z,11.63
2019-03-31T22:52:12.951Z,13.07
2019-03-31T22:54:44.277Z,11.23
2019-03-31T22:57:15.695Z,13.13
2019-03-31T22:59:45.765Z,12.53
2019-03-31T23:02:16.958Z,13.90
2019-03-31T23:04:45.341Z,12.30
2019-03-31T23:07:13.754Z,16.70
2019-03-31T23:09:42.136Z,14.50
2019-03-31T23:12:14.277Z,14.33
2019-03-31T23:14:46.088Z,13.63
2019-03-31T23:17:14.741Z,13.90
2019-03-31T23:19:44.770Z,13.70
2019-03-31T23:22:13.393Z,14.43
2019-03-31T23:24:42.617Z,15.27
2019-03-31T23:27:11.001Z,14.97
2019-03-31T23:29:39.402Z,16.97
2019-03-31T23:32:09.266Z,12.50
2019-03-31T23:34:37.698Z,13.93
2019-03-31T23:37:12.181Z,13.47
2019-03-31T23:39:43.509Z,14.40
2019-03-31T23:42:17.740Z,18.63
2019-03-31T23:44:48.966Z,12.20
2019-03-31T23:47:17.347Z,13.50
2019-03-31T23:49:57.673Z,14.83
2019-03-31T23:52:28.475Z,15.80
2019-03-31T23:55:00.598Z,16.63
2019-03-31T23:57:42.737Z,16.53
